sensor_id;sensor_type;location;lat;lon;timestamp;pressure;altitude;pressure_sealevel;temperature;humidity
63654;BME280;49809;47.418;19.080;2023-06-10T00:02:55;100053.72;;;17.35;100.00
63654;BME280;49809;47.418;19.080;2023-06-10T00:07:17;100049.03;;;17.41;100.00
63654;BME280;49809;47.418;19.080;2023-06-10T00:10:44;100045.62;;;17.49;100.00
63654;BME280;49809;47.418;19.080;2023-06-10T00:14:19;100047.72;;;17.52;100.00
63654;BME280;49809;47.418;19.080;2023-06-10T00:17:55;100036.69;;;17.54;100.00
63654;BME280;49809;47.418;19.080;2023-06-10T00:21:25;100039.97;;;17.51;100.00
63654;BME280;49809;47.418;19.080;2023-06-10T00:24:55;100038.09;;;17.51;100.00
63654;BME280;49809;47.418;19.080;2023-06-10T00:28:43;100037.47;;;17.54;100.00
63654;BME280;49809;47.418;19.080;2023-06-10T00:32:33;100036.41;;;17.55;100.00
63654;BME280;49809;47.418;19.080;2023-06-10T00:36:24;100030.53;;;17.53;100.00
63654;BME280;49809;47.418;19.080;2023-06-10T00:39:54;100040.66;;;17.56;100.00
63654;BME280;49809;47.418;19.080;2023-06-10T00:43:24;100045.22;;;17.56;100.00
63654;BME280;49809;47.418;19.080;2023-06-10T00:47:00;100050.00;;;17.59;100.00
63654;BME280;49809;47.418;19.080;2023-06-10T00:50:47;100050.56;;;17.56;100.00
63654;BME280;49809;47.418;19.080;2023-06-10T00:54:23;100054.50;;;17.58;100.00
63654;BME280;49809;47.418;19.080;2023-06-10T00:58:03;100053.97;;;17.61;100.00
63654;BME280;49809;47.418;19.080;2023-06-10T01:01:48;100059.66;;;17.68;100.00
63654;BME280;49809;47.418;19.080;2023-06-10T01:05:26;100060.28;;;17.65;100.00
63654;BME280;49809;47.418;19.080;2023-06-10T01:12:43;100062.84;;;17.70;100.00
63654;BME280;49809;47.418;19.080;2023-06-10T01:16:31;100062.03;;;17.70;100.00
63654;BME280;49809;47.418;19.080;2023-06-10T01:20:28;100058.47;;;17.74;100.00
63654;BME280;49809;47.418;19.080;2023-06-10T01:23:53;100060.84;;;17.76;100.00
63654;BME280;49809;47.418;19.080;2023-06-10T01:27:40;100061.31;;;17.78;100.00
63654;BME280;49809;47.418;19.080;2023-06-10T01:35:12;100060.63;;;17.72;100.00
63654;BME280;49809;47.418;19.080;2023-06-10T01:38:43;100059.66;;;17.68;100.00
63654;BME280;49809;47.418;19.080;2023-06-10T01:42:09;100057.97;;;17.72;100.00
63654;BME280;49809;47.418;19.080;2023-06-10T01:46:01;100056.88;;;17.73;100.00
63654;BME280;49809;47.418;19.080;2023-06-10T01:49:35;100061.75;;;17.71;100.00
63654;BME280;49809;47.418;19.080;2023-06-10T01:53:13;100061.88;;;17.66;100.00
63654;BME280;49809;47.418;19.080;2023-06-10T01:57:05;100053.34;;;17.64;100.00
63654;BME280;49809;47.418;19.080;2023-06-10T02:00:46;100056.22;;;17.54;100.00
63654;BME280;49809;47.418;19.080;2023-06-10T02:04:35;100057.94;;;17.50;100.00
63654;BME280;49809;47.418;19.080;2023-06-10T02:08:00;100058.16;;;17.40;100.00
63654;BME280;49809;47.418;19.080;2023-06-10T02:11:36;100050.84;;;17.32;100.00
63654;BME280;49809;47.418;19.080;2023-06-10T02:15:13;100053.63;;;17.27;100.00
63654;BME280;49809;47.418;19.080;2023-06-10T02:19:03;100057.00;;;17.19;100.00
63654;BME280;49809;47.418;19.080;2023-06-10T02:22:33;100060.41;;;17.11;100.00
63654;BME280;49809;47.418;19.080;2023-06-10T02:26:21;100065.16;;;17.00;100.00
63654;BME280;49809;47.418;19.080;2023-06-10T02:29:45;100064.47;;;16.94;100.00
63654;BME280;49809;47.418;19.080;2023-06-10T02:33:24;100059.22;;;16.89;100.00
63654;BME280;49809;47.418;19.080;2023-06-10T02:37:04;100061.63;;;16.77;100.00
63654;BME280;49809;47.418;19.080;2023-06-10T02:40:42;100064.19;;;16.69;100.00
63654;BME280;49809;47.418;19.080;2023-06-10T02:44:18;100058.66;;;16.65;100.00
63654;BME280;49809;47.418;19.080;2023-06-10T02:48:08;100065.19;;;16.59;100.00
63654;BME280;49809;47.418;19.080;2023-06-10T02:52:07;100067.91;;;16.54;100.00
63654;BME280;49809;47.418;19.080;2023-06-10T02:55:56;100071.88;;;16.57;100.00
63654;BME280;49809;47.418;19.080;2023-06-10T03:00:07;100064.16;;;16.55;100.00
63654;BME280;49809;47.418;19.080;2023-06-10T03:04:07;100074.84;;;16.55;100.00
63654;BME280;49809;47.418;19.080;2023-06-10T03:07:51;100077.47;;;16.60;100.00
63654;BME280;49809;47.418;19.080;2023-06-10T03:11:43;100070.63;;;16.68;100.00
63654;BME280;49809;47.418;19.080;2023-06-10T03:15:08;100079.53;;;16.63;100.00
63654;BME280;49809;47.418;19.080;2023-06-10T03:18:54;100080.63;;;16.62;100.00
63654;BME280;49809;47.418;19.080;2023-06-10T03:22:26;100078.44;;;16.64;100.00
63654;BME280;49809;47.418;19.080;2023-06-10T03:26:12;100081.59;;;16.66;100.00
63654;BME280;49809;47.418;19.080;2023-06-10T03:29:51;100088.81;;;16.66;100.00
63654;BME280;49809;47.418;19.080;2023-06-10T03:34:10;100080.53;;;16.67;100.00
63654;BME280;49809;47.418;19.080;2023-06-10T03:38:02;100087.75;;;16.80;100.00
63654;BME280;49809;47.418;19.080;2023-06-10T03:41:57;100084.97;;;16.85;100.00
63654;BME280;49809;47.418;19.080;2023-06-10T03:46:08;100082.88;;;16.96;100.00
63654;BME280;49809;47.418;19.080;2023-06-10T03:49:57;100073.06;;;17.05;100.00
63654;BME280;49809;47.418;19.080;2023-06-10T03:53:43;100072.97;;;17.10;100.00
63654;BME280;49809;47.418;19.080;2023-06-10T03:57:18;100068.72;;;17.23;100.00
63654;BME280;49809;47.418;19.080;2023-06-10T04:01:02;100064.50;;;17.30;100.00
63654;BME280;49809;47.418;19.080;2023-06-10T04:04:39;100073.12;;;17.41;100.00
63654;BME280;49809;47.418;19.080;2023-06-10T04:08:11;100066.06;;;17.45;100.00
63654;BME280;49809;47.418;19.080;2023-06-10T04:11:49;100077.16;;;17.52;100.00
63654;BME280;49809;47.418;19.080;2023-06-10T04:15:35;100071.59;;;17.49;100.00
63654;BME280;49809;47.418;19.080;2023-06-10T04:19:12;100067.37;;;17.34;100.00
63654;BME280;49809;47.418;19.080;2023-06-10T04:23:00;100071.06;;;17.24;100.00
63654;BME280;49809;47.418;19.080;2023-06-10T04:26:54;100071.50;;;17.18;100.00
63654;BME280;49809;47.418;19.080;2023-06-10T04:30:50;100073.16;;;17.14;100.00
63654;BME280;49809;47.418;19.080;2023-06-10T04:34:33;100080.00;;;17.20;100.00
63654;BME280;49809;47.418;19.080;2023-06-10T04:38:22;100079.78;;;17.30;100.00
63654;BME280;49809;47.418;19.080;2023-06-10T04:41:45;100078.47;;;17.41;100.00
63654;BME280;49809;47.418;19.080;2023-06-10T04:45:20;100072.38;;;17.49;100.00
63654;BME280;49809;47.418;19.080;2023-06-10T04:53:06;100072.56;;;17.66;100.00
63654;BME280;49809;47.418;19.080;2023-06-10T04:57:03;100076.06;;;17.67;100.00
63654;BME280;49809;47.418;19.080;2023-06-10T05:01:00;100087.16;;;17.83;100.00
63654;BME280;49809;47.418;19.080;2023-06-10T05:04:24;100081.41;;;17.89;100.00
63654;BME280;49809;47.418;19.080;2023-06-10T05:08:10;100085.66;;;17.90;100.00
63654;BME280;49809;47.418;19.080;2023-06-10T05:11:44;100081.34;;;17.80;100.00
63654;BME280;49809;47.418;19.080;2023-06-10T05:15:37;100084.37;;;17.88;100.00
63654;BME280;49809;47.418;19.080;2023-06-10T05:19:30;100082.91;;;18.04;100.00
63654;BME280;49809;47.418;19.080;2023-06-10T05:23:05;100093.22;;;18.41;100.00
63654;BME280;49809;47.418;19.080;2023-06-10T05:26:53;100093.41;;;18.76;99.20
63654;BME280;49809;47.418;19.080;2023-06-10T05:34:39;100099.03;;;19.22;94.83
63654;BME280;49809;47.418;19.080;2023-06-10T05:38:05;100101.63;;;19.53;92.56
63654;BME280;49809;47.418;19.080;2023-06-10T05:41:58;100098.66;;;19.55;92.87
63654;BME280;49809;47.418;19.080;2023-06-10T05:45:46;100097.22;;;19.57;91.52
63654;BME280;49809;47.418;19.080;2023-06-10T05:49:14;100097.84;;;19.54;92.83
63654;BME280;49809;47.418;19.080;2023-06-10T05:53:09;100090.41;;;19.77;92.18
63654;BME280;49809;47.418;19.080;2023-06-10T05:56:39;100092.63;;;19.92;90.40
63654;BME280;49809;47.418;19.080;2023-06-10T06:00:25;100101.97;;;19.77;91.56
63654;BME280;49809;47.418;19.080;2023-06-10T06:04:11;100091.69;;;19.71;91.71
63654;BME280;49809;47.418;19.080;2023-06-10T06:07:37;100092.78;;;19.61;92.68
63654;BME280;49809;47.418;19.080;2023-06-10T06:11:13;100089.28;;;19.43;91.24
63654;BME280;49809;47.418;19.080;2023-06-10T06:15:07;100093.09;;;19.51;93.12
63654;BME280;49809;47.418;19.080;2023-06-10T06:19:00;100105.59;;;19.64;93.40
63654;BME280;49809;47.418;19.080;2023-06-10T06:22:54;100102.44;;;19.62;91.98
63654;BME280;49809;47.418;19.080;2023-06-10T06:26:22;100100.19;;;19.90;91.54
63654;BME280;49809;47.418;19.080;2023-06-10T06:30:25;100105.88;;;20.06;88.77
63654;BME280;49809;47.418;19.080;2023-06-10T06:33:52;100112.81;;;20.32;89.64
63654;BME280;49809;47.418;19.080;2023-06-10T06:37:16;100118.66;;;21.19;84.17
63654;BME280;49809;47.418;19.080;2023-06-10T06:40:57;100112.63;;;21.22;83.33
63654;BME280;49809;47.418;19.080;2023-06-10T06:45:06;100119.44;;;21.40;83.23
63654;BME280;49809;47.418;19.080;2023-06-10T06:48:32;100113.00;;;22.16;79.43
63654;BME280;49809;47.418;19.080;2023-06-10T06:52:17;100120.97;;;21.91;79.59
63654;BME280;49809;47.418;19.080;2023-06-10T06:55:54;100120.44;;;21.98;78.60
63654;BME280;49809;47.418;19.080;2023-06-10T06:59:33;100117.06;;;22.22;77.36
63654;BME280;49809;47.418;19.080;2023-06-10T07:03:17;100128.53;;;21.98;78.88
63654;BME280;49809;47.418;19.080;2023-06-10T07:06:46;100118.28;;;22.12;77.74
63654;BME280;49809;47.418;19.080;2023-06-10T07:10:32;100124.47;;;22.25;77.10
63654;BME280;49809;47.418;19.080;2023-06-10T07:14:08;100114.87;;;22.48;77.31
63654;BME280;49809;47.418;19.080;2023-06-10T07:21:51;100112.84;;;22.57;76.18
63654;BME280;49809;47.418;19.080;2023-06-10T07:25:26;100133.59;;;23.50;72.42
63654;BME280;49809;47.418;19.080;2023-06-10T07:29:25;100129.75;;;23.51;71.95
63654;BME280;49809;47.418;19.080;2023-06-10T07:32:51;100129.75;;;23.15;73.12
63654;BME280;49809;47.418;19.080;2023-06-10T07:36:42;100128.44;;;23.09;74.47
63654;BME280;49809;47.418;19.080;2023-06-10T07:40:23;100131.56;;;23.11;73.45
63654;BME280;49809;47.418;19.080;2023-06-10T07:43:42;100129.66;;;23.23;72.63
63654;BME280;49809;47.418;19.080;2023-06-10T07:47:22;100133.13;;;23.36;72.95
63654;BME280;49809;47.418;19.080;2023-06-10T07:50:53;100130.62;;;23.55;71.41
63654;BME280;49809;47.418;19.080;2023-06-10T07:54:52;100128.50;;;23.61;71.85
63654;BME280;49809;47.418;19.080;2023-06-10T07:58:33;100128.09;;;24.02;68.29
63654;BME280;49809;47.418;19.080;2023-06-10T08:01:56;100127.41;;;23.77;70.69
63654;BME280;49809;47.418;19.080;2023-06-10T08:05:19;100128.31;;;24.53;66.29
63654;BME280;49809;47.418;19.080;2023-06-10T08:09:08;100123.69;;;24.85;64.90
63654;BME280;49809;47.418;19.080;2023-06-10T08:12:53;100127.63;;;24.72;65.08
63654;BME280;49809;47.418;19.080;2023-06-10T08:16:25;100136.50;;;24.25;67.71
63654;BME280;49809;47.418;19.080;2023-06-10T08:20:02;100125.16;;;24.51;67.13
63654;BME280;49809;47.418;19.080;2023-06-10T08:23:39;100125.09;;;24.63;66.90
63654;BME280;49809;47.418;19.080;2023-06-10T08:27:03;100112.78;;;24.34;67.65
63654;BME280;49809;47.418;19.080;2023-06-10T08:30:22;100116.53;;;24.45;67.58
63654;BME280;49809;47.418;19.080;2023-06-10T08:33:56;100118.97;;;24.07;69.77
63654;BME280;49809;47.418;19.080;2023-06-10T08:37:32;100114.28;;;24.63;65.85
63654;BME280;49809;47.418;19.080;2023-06-10T08:41:06;100110.34;;;26.00;63.95
63654;BME280;49809;47.418;19.080;2023-06-10T08:44:37;100112.59;;;27.35;59.29
63654;BME280;49809;47.418;19.080;2023-06-10T08:48:17;100100.97;;;28.78;55.27
63654;BME280;49809;47.418;19.080;2023-06-10T08:52:00;100099.75;;;29.34;51.03
63654;BME280;49809;47.418;19.080;2023-06-10T08:55:51;100102.88;;;28.74;51.44
63654;BME280;49809;47.418;19.080;2023-06-10T08:59:20;100097.69;;;28.62;52.04
63654;BME280;49809;47.418;19.080;2023-06-10T09:03:00;100095.28;;;29.84;47.87
63654;BME280;49809;47.418;19.080;2023-06-10T09:06:36;100091.50;;;30.31;47.86
63654;BME280;49809;47.418;19.080;2023-06-10T09:10:12;100084.87;;;30.43;46.78
63654;BME280;49809;47.418;19.080;2023-06-10T09:13:50;100086.53;;;29.36;49.35
63654;BME280;49809;47.418;19.080;2023-06-10T09:17:18;100077.81;;;28.14;52.99
63654;BME280;49809;47.418;19.080;2023-06-10T09:20:37;100076.69;;;28.63;52.41
63654;BME280;49809;47.418;19.080;2023-06-10T09:24:21;100087.09;;;29.80;48.48
63654;BME280;49809;47.418;19.080;2023-06-10T09:27:57;100077.63;;;29.53;47.88
63654;BME280;49809;47.418;19.080;2023-06-10T09:31:27;100079.28;;;29.83;48.31
63654;BME280;49809;47.418;19.080;2023-06-10T09:35:16;100068.44;;;30.99;45.08
63654;BME280;49809;47.418;19.080;2023-06-10T09:38:58;100069.53;;;31.37;43.67
63654;BME280;49809;47.418;19.080;2023-06-10T09:42:42;100076.50;;;31.60;43.12
63654;BME280;49809;47.418;19.080;2023-06-10T09:46:32;100066.03;;;32.10;41.25
63654;BME280;49809;47.418;19.080;2023-06-10T09:50:04;100062.38;;;32.78;40.84
63654;BME280;49809;47.418;19.080;2023-06-10T09:53:35;100065.13;;;32.30;42.48
63654;BME280;49809;47.418;19.080;2023-06-10T09:56:55;100065.25;;;33.02;41.27
63654;BME280;49809;47.418;19.080;2023-06-10T10:00:55;100063.72;;;32.97;42.09
63654;BME280;49809;47.418;19.080;2023-06-10T10:04:23;100067.78;;;32.86;42.47
63654;BME280;49809;47.418;19.080;2023-06-10T10:07:45;100058.28;;;32.94;39.20
63654;BME280;49809;47.418;19.080;2023-06-10T10:10:51;100058.69;;;31.05;42.25
63654;BME280;49809;47.418;19.080;2023-06-10T10:14:33;100069.53;;;29.71;46.81
63654;BME280;49809;47.418;19.080;2023-06-10T10:18:43;100069.12;;;28.89;48.17
63654;BME280;49809;47.418;19.080;2023-06-10T10:22:14;100071.19;;;28.12;50.94
63654;BME280;49809;47.418;19.080;2023-06-10T10:25:42;100066.44;;;27.08;51.84
63654;BME280;49809;47.418;19.080;2023-06-10T10:33:08;100057.91;;;26.15;54.41
63654;BME280;49809;47.418;19.080;2023-06-10T10:36:54;100047.53;;;25.56;56.59
63654;BME280;49809;47.418;19.080;2023-06-10T10:40:29;100054.94;;;25.78;57.51
63654;BME280;49809;47.418;19.080;2023-06-10T10:44:07;100051.50;;;25.62;58.29
63654;BME280;49809;47.418;19.080;2023-06-10T10:48:08;100044.22;;;25.47;59.01
63654;BME280;49809;47.418;19.080;2023-06-10T10:51:34;100041.44;;;25.82;57.01
63654;BME280;49809;47.418;19.080;2023-06-10T10:55:14;100038.38;;;26.06;55.49
63654;BME280;49809;47.418;19.080;2023-06-10T10:59:03;100033.41;;;26.80;54.47
63654;BME280;49809;47.418;19.080;2023-06-10T11:02:42;100021.50;;;27.81;50.94
63654;BME280;49809;47.418;19.080;2023-06-10T11:06:14;100017.72;;;28.84;48.26
63654;BME280;49809;47.418;19.080;2023-06-10T11:10:06;100019.66;;;29.70;48.85
63654;BME280;49809;47.418;19.080;2023-06-10T11:18:07;100012.31;;;28.37;49.69
63654;BME280;49809;47.418;19.080;2023-06-10T11:21:58;100009.87;;;27.84;51.37
63654;BME280;49809;47.418;19.080;2023-06-10T11:25:47;100008.91;;;27.66;52.50
63654;BME280;49809;47.418;19.080;2023-06-10T11:29:25;100002.87;;;27.83;53.06
63654;BME280;49809;47.418;19.080;2023-06-10T11:33:04;100002.41;;;28.15;53.29
63654;BME280;49809;47.418;19.080;2023-06-10T11:36:44;100011.84;;;28.82;50.18
63654;BME280;49809;47.418;19.080;2023-06-10T11:40:24;100013.00;;;28.74;50.81
63654;BME280;49809;47.418;19.080;2023-06-10T11:43:45;99999.53;;;28.48;51.92
63654;BME280;49809;47.418;19.080;2023-06-10T11:47:22;99999.69;;;28.66;51.93
63654;BME280;49809;47.418;19.080;2023-06-10T11:50:49;99993.28;;;28.99;50.83
63654;BME280;49809;47.418;19.080;2023-06-10T11:54:19;99983.84;;;29.90;47.13
63654;BME280;49809;47.418;19.080;2023-06-10T11:57:51;99992.31;;;29.42;47.85
63654;BME280;49809;47.418;19.080;2023-06-10T12:01:26;99983.53;;;27.92;50.29
63654;BME280;49809;47.418;19.080;2023-06-10T12:05:14;99981.84;;;28.21;52.85
63654;BME280;49809;47.418;19.080;2023-06-10T12:08:54;99981.16;;;28.31;51.92
63654;BME280;49809;47.418;19.080;2023-06-10T12:12:42;99976.25;;;29.30;47.05
63654;BME280;49809;47.418;19.080;2023-06-10T12:17:00;99969.41;;;30.56;45.15
63654;BME280;49809;47.418;19.080;2023-06-10T12:20:37;99958.59;;;31.36;42.20
63654;BME280;49809;47.418;19.080;2023-06-10T12:24:28;99965.84;;;32.94;38.62
63654;BME280;49809;47.418;19.080;2023-06-10T12:27:59;99970.28;;;31.40;42.12
63654;BME280;49809;47.418;19.080;2023-06-10T12:31:52;99955.00;;;30.03;44.31
63654;BME280;49809;47.418;19.080;2023-06-10T12:35:21;99948.59;;;27.97;48.74
63654;BME280;49809;47.418;19.080;2023-06-10T12:38:51;99944.53;;;27.77;51.77
63654;BME280;49809;47.418;19.080;2023-06-10T12:42:32;99938.19;;;28.65;49.11
63654;BME280;49809;47.418;19.080;2023-06-10T12:46:10;99935.09;;;29.67;45.95
63654;BME280;49809;47.418;19.080;2023-06-10T12:49:40;99939.25;;;29.22;45.87
63654;BME280;49809;47.418;19.080;2023-06-10T12:53:01;99930.94;;;28.25;45.88
63654;BME280;49809;47.418;19.080;2023-06-10T12:56:38;99930.38;;;28.05;48.66
63654;BME280;49809;47.418;19.080;2023-06-10T13:00:27;99931.44;;;27.93;47.09
63654;BME280;49809;47.418;19.080;2023-06-10T13:04:11;99920.69;;;28.07;47.12
63654;BME280;49809;47.418;19.080;2023-06-10T13:07:48;99918.50;;;28.24;45.83
63654;BME280;49809;47.418;19.080;2023-06-10T13:11:27;99914.31;;;27.89;48.03
63654;BME280;49809;47.418;19.080;2023-06-10T13:15:10;99907.66;;;28.31;47.55
63654;BME280;49809;47.418;19.080;2023-06-10T13:18:33;99909.84;;;27.63;50.76
63654;BME280;49809;47.418;19.080;2023-06-10T13:22:21;99904.47;;;27.74;49.66
63654;BME280;49809;47.418;19.080;2023-06-10T13:25:56;99903.97;;;27.58;49.97
63654;BME280;49809;47.418;19.080;2023-06-10T13:29:38;99902.66;;;28.36;49.29
63654;BME280;49809;47.418;19.080;2023-06-10T13:33:09;99904.63;;;27.92;48.57
63654;BME280;49809;47.418;19.080;2023-06-10T13:36:38;99906.56;;;27.91;49.58
63654;BME280;49809;47.418;19.080;2023-06-10T13:40:10;99900.91;;;27.63;50.03
63654;BME280;49809;47.418;19.080;2023-06-10T13:47:53;99906.69;;;26.61;53.47
63654;BME280;49809;47.418;19.080;2023-06-10T13:51:42;99906.75;;;26.65;52.00
63654;BME280;49809;47.418;19.080;2023-06-10T13:55:09;99908.31;;;26.66;51.51
63654;BME280;49809;47.418;19.080;2023-06-10T13:58:46;99906.16;;;26.82;51.34
63654;BME280;49809;47.418;19.080;2023-06-10T14:02:06;99913.88;;;26.76;50.20
63654;BME280;49809;47.418;19.080;2023-06-10T14:05:41;99908.94;;;26.29;52.05
63654;BME280;49809;47.418;19.080;2023-06-10T14:09:19;99915.19;;;25.62;56.61
63654;BME280;49809;47.418;19.080;2023-06-10T14:12:41;99927.09;;;24.96;60.63
63654;BME280;49809;47.418;19.080;2023-06-10T14:16:14;99923.72;;;24.83;68.90
63654;BME280;49809;47.418;19.080;2023-06-10T14:19:51;99925.63;;;24.63;68.68
63654;BME280;49809;47.418;19.080;2023-06-10T14:23:25;99921.88;;;24.52;67.70
63654;BME280;49809;47.418;19.080;2023-06-10T14:27:02;99919.22;;;24.72;65.48
63654;BME280;49809;47.418;19.080;2023-06-10T14:30:39;99912.53;;;25.04;65.59
63654;BME280;49809;47.418;19.080;2023-06-10T14:34:33;99905.12;;;25.20;65.41
63654;BME280;49809;47.418;19.080;2023-06-10T14:38:05;99906.00;;;25.05;66.18
63654;BME280;49809;47.418;19.080;2023-06-10T14:42:10;99903.41;;;24.74;68.68
63654;BME280;49809;47.418;19.080;2023-06-10T14:45:34;99904.75;;;24.64;66.99
63654;BME280;49809;47.418;19.080;2023-06-10T14:49:27;99902.09;;;24.48;68.13
63654;BME280;49809;47.418;19.080;2023-06-10T14:52:54;99918.88;;;24.38;68.16
63654;BME280;49809;47.418;19.080;2023-06-10T14:56:32;99919.09;;;24.49;69.18
63654;BME280;49809;47.418;19.080;2023-06-10T15:00:07;99916.53;;;24.21;69.54
63654;BME280;49809;47.418;19.080;2023-06-10T15:03:51;99923.84;;;23.89;70.63
63654;BME280;49809;47.418;19.080;2023-06-10T15:07:44;99908.91;;;24.11;69.64
63654;BME280;49809;47.418;19.080;2023-06-10T15:11:04;99912.41;;;24.27;68.77
63654;BME280;49809;47.418;19.080;2023-06-10T15:14:35;99909.50;;;24.51;66.91
63654;BME280;49809;47.418;19.080;2023-06-10T15:18:14;99911.94;;;24.76;66.56
63654;BME280;49809;47.418;19.080;2023-06-10T15:22:02;99914.56;;;24.88;65.28
63654;BME280;49809;47.418;19.080;2023-06-10T15:25:41;99911.44;;;25.28;64.14
63654;BME280;49809;47.418;19.080;2023-06-10T15:29:33;99914.34;;;25.58;62.60
63654;BME280;49809;47.418;19.080;2023-06-10T15:33:01;99921.28;;;25.55;62.09
63654;BME280;49809;47.418;19.080;2023-06-10T15:36:31;99918.69;;;25.20;63.03
63654;BME280;49809;47.418;19.080;2023-06-10T15:40:09;99926.38;;;24.13;66.78
63654;BME280;49809;47.418;19.080;2023-06-10T15:43:56;99942.09;;;23.76;69.35
63654;BME280;49809;47.418;19.080;2023-06-10T15:47:21;99938.97;;;23.47;71.85
63654;BME280;49809;47.418;19.080;2023-06-10T15:50:48;99945.53;;;23.06;74.38
63654;BME280;49809;47.418;19.080;2023-06-10T15:54:38;99944.62;;;23.29;73.14
63654;BME280;49809;47.418;19.080;2023-06-10T15:57:55;99934.63;;;23.30;73.27
63654;BME280;49809;47.418;19.080;2023-06-10T16:01:28;99941.31;;;23.48;72.71
63654;BME280;49809;47.418;19.080;2023-06-10T16:05:02;99937.06;;;23.63;68.04
63654;BME280;49809;47.418;19.080;2023-06-10T16:08:48;99944.12;;;23.67;67.77
63654;BME280;49809;47.418;19.080;2023-06-10T16:12:13;99955.66;;;23.09;69.87
63654;BME280;49809;47.418;19.080;2023-06-10T16:16:23;99939.69;;;23.31;69.61
63654;BME280;49809;47.418;19.080;2023-06-10T16:19:47;99948.75;;;23.23;70.96
63654;BME280;49809;47.418;19.080;2023-06-10T16:23:20;99941.91;;;23.14;71.18
63654;BME280;49809;47.418;19.080;2023-06-10T16:26:44;99944.81;;;22.81;72.68
63654;BME280;49809;47.418;19.080;2023-06-10T16:30:35;99950.53;;;22.67;73.78
63654;BME280;49809;47.418;19.080;2023-06-10T16:34:06;99957.31;;;22.49;75.90
63654;BME280;49809;47.418;19.080;2023-06-10T16:37:56;99958.22;;;22.41;76.34
63654;BME280;49809;47.418;19.080;2023-06-10T16:45:50;99961.16;;;22.12;78.87
63654;BME280;49809;47.418;19.080;2023-06-10T16:49:42;99968.09;;;22.00;79.53
63654;BME280;49809;47.418;19.080;2023-06-10T16:53:26;99957.25;;;21.88;80.81
63654;BME280;49809;47.418;19.080;2023-06-10T16:56:51;99958.94;;;21.48;82.88
63654;BME280;49809;47.418;19.080;2023-06-10T17:00:37;99965.06;;;21.69;82.54
63654;BME280;49809;47.418;19.080;2023-06-10T17:04:18;99962.25;;;21.65;82.37
63654;BME280;49809;47.418;19.080;2023-06-10T17:07:55;99965.06;;;21.69;82.41
63654;BME280;49809;47.418;19.080;2023-06-10T17:11:35;99963.25;;;21.61;82.98
63654;BME280;49809;47.418;19.080;2023-06-10T17:14:55;99966.81;;;21.53;83.91
63654;BME280;49809;47.418;19.080;2023-06-10T17:19:01;99973.78;;;21.54;84.01
63654;BME280;49809;47.418;19.080;2023-06-10T17:22:54;99985.91;;;21.60;83.38
63654;BME280;49809;47.418;19.080;2023-06-10T17:26:31;99991.38;;;21.51;84.47
63654;BME280;49809;47.418;19.080;2023-06-10T17:29:56;99991.72;;;21.50;84.27
63654;BME280;49809;47.418;19.080;2023-06-10T17:33:20;99994.41;;;21.50;84.41
63654;BME280;49809;47.418;19.080;2023-06-10T17:37:16;100010.03;;;21.36;85.15
63654;BME280;49809;47.418;19.080;2023-06-10T17:41:27;100017.69;;;21.34;85.82
63654;BME280;49809;47.418;19.080;2023-06-10T17:44:53;100015.59;;;21.18;87.27
63654;BME280;49809;47.418;19.080;2023-06-10T17:48:42;100018.28;;;21.18;87.76
63654;BME280;49809;47.418;19.080;2023-06-10T17:52:16;100021.22;;;21.25;87.18
63654;BME280;49809;47.418;19.080;2023-06-10T17:56:19;100018.19;;;21.27;87.46
63654;BME280;49809;47.418;19.080;2023-06-10T17:59:55;100026.03;;;21.11;88.72
63654;BME280;49809;47.418;19.080;2023-06-10T18:03:12;100017.16;;;21.19;88.37
63654;BME280;49809;47.418;19.080;2023-06-10T18:06:59;100022.25;;;21.12;88.90
63654;BME280;49809;47.418;19.080;2023-06-10T18:10:33;100022.91;;;21.09;89.43
63654;BME280;49809;47.418;19.080;2023-06-10T18:14:15;100012.12;;;21.09;88.82
63654;BME280;49809;47.418;19.080;2023-06-10T18:18:11;100014.09;;;21.00;89.36
63654;BME280;49809;47.418;19.080;2023-06-10T18:21:37;100010.69;;;20.91;89.61
63654;BME280;49809;47.418;19.080;2023-06-10T18:25:24;100008.44;;;20.93;89.65
63654;BME280;49809;47.418;19.080;2023-06-10T18:29:01;100011.50;;;20.83;90.07
63654;BME280;49809;47.418;19.080;2023-06-10T18:32:52;100014.88;;;20.80;89.66
63654;BME280;49809;47.418;19.080;2023-06-10T18:36:26;100016.66;;;20.67;90.08
63654;BME280;49809;47.418;19.080;2023-06-10T18:40:05;100022.56;;;20.61;90.63
63654;BME280;49809;47.418;19.080;2023-06-10T18:43:54;100019.44;;;20.50;91.21
63654;BME280;49809;47.418;19.080;2023-06-10T18:47:17;100026.78;;;20.41;91.23
63654;BME280;49809;47.418;19.080;2023-06-10T18:51:01;100020.28;;;20.33;91.56
63654;BME280;49809;47.418;19.080;2023-06-10T18:54:44;100030.44;;;20.28;92.11
63654;BME280;49809;47.418;19.080;2023-06-10T18:58:06;100035.62;;;20.24;92.34
63654;BME280;49809;47.418;19.080;2023-06-10T19:01:39;100042.16;;;20.23;93.14
63654;BME280;49809;47.418;19.080;2023-06-10T19:05:20;100045.28;;;20.25;92.88
63654;BME280;49809;47.418;19.080;2023-06-10T19:08:55;100047.19;;;20.25;93.63
63654;BME280;49809;47.418;19.080;2023-06-10T19:12:38;100051.59;;;20.29;93.08
63654;BME280;49809;47.418;19.080;2023-06-10T19:16:10;100049.41;;;20.31;93.25
63654;BME280;49809;47.418;19.080;2023-06-10T19:19:51;100047.47;;;20.41;92.93
63654;BME280;49809;47.418;19.080;2023-06-10T19:24:00;100038.81;;;20.35;93.47
63654;BME280;49809;47.418;19.080;2023-06-10T19:27:38;100036.44;;;20.33;94.30
63654;BME280;49809;47.418;19.080;2023-06-10T19:31:07;100041.00;;;20.42;93.66